Аэропорт: Гомель. Гомель

ICAO: UMGG

METAR:
2019-12-12 10:30:00
UMGG 121030Z 13005MPS 4000 BR OVC004 01/01 Q1019 R10/290050 TEMPO 2000 RMK QBB120
METAR:
2019-12-12 06:59:00
TAF AMD UMGG 120659Z 1206/1306 15007MPS 2000 BR BKN003 TEMPO 1206/1211 0300 FZDZ FZFG OVC002 TEMPO 1211/1214 0800 DZ FG OVC002 SCT015CB TEMPO 1214/1306 15008G13MPS 1200 BKN004 BKN015CB